sensor_id;sensor_type;location;lat;lon;timestamp;temperature;humidity
16485;DHT22;8353;47.856;12.344;2022-08-19T00:02:42;22.50;99.90
16485;DHT22;8353;47.856;12.344;2022-08-19T00:05:28;22.50;99.90
16485;DHT22;8353;47.856;12.344;2022-08-19T00:08:15;22.50;99.90
16485;DHT22;8353;47.856;12.344;2022-08-19T00:11:04;22.50;99.90
16485;DHT22;8353;47.856;12.344;2022-08-19T00:13:51;22.50;99.90
16485;DHT22;8353;47.856;12.344;2022-08-19T00:16:39;22.40;99.90
16485;DHT22;8353;47.856;12.344;2022-08-19T00:19:26;22.30;99.90
16485;DHT22;8353;47.856;12.344;2022-08-19T00:22:13;22.30;99.90
16485;DHT22;8353;47.856;12.344;2022-08-19T00:25:01;22.20;99.90
16485;DHT22;8353;47.856;12.344;2022-08-19T00:27:50;22.10;99.90
16485;DHT22;8353;47.856;12.344;2022-08-19T00:30:37;22.10;99.90
16485;DHT22;8353;47.856;12.344;2022-08-19T00:33:23;21.90;99.90
16485;DHT22;8353;47.856;12.344;2022-08-19T00:36:11;21.90;99.90
16485;DHT22;8353;47.856;12.344;2022-08-19T00:38:58;21.90;99.90
16485;DHT22;8353;47.856;12.344;2022-08-19T00:41:46;21.90;99.90
16485;DHT22;8353;47.856;12.344;2022-08-19T00:44:35;22.00;99.90
16485;DHT22;8353;47.856;12.344;2022-08-19T00:47:22;21.90;99.90
16485;DHT22;8353;47.856;12.344;2022-08-19T00:50:10;22.00;99.90
16485;DHT22;8353;47.856;12.344;2022-08-19T00:52:58;22.10;99.90
16485;DHT22;8353;47.856;12.344;2022-08-19T00:55:48;22.20;99.90
16485;DHT22;8353;47.856;12.344;2022-08-19T00:58:36;22.00;99.90
16485;DHT22;8353;47.856;12.344;2022-08-19T01:01:25;22.00;99.90
16485;DHT22;8353;47.856;12.344;2022-08-19T01:04:11;22.10;99.90
16485;DHT22;8353;47.856;12.344;2022-08-19T01:06:59;22.10;99.90
16485;DHT22;8353;47.856;12.344;2022-08-19T01:09:46;22.10;99.90
16485;DHT22;8353;47.856;12.344;2022-08-19T01:12:33;22.20;99.90
16485;DHT22;8353;47.856;12.344;2022-08-19T01:15:23;22.20;99.90
16485;DHT22;8353;47.856;12.344;2022-08-19T01:18:15;22.30;99.90
16485;DHT22;8353;47.856;12.344;2022-08-19T01:21:07;22.30;99.90
16485;DHT22;8353;47.856;12.344;2022-08-19T01:23:55;22.20;99.90
16485;DHT22;8353;47.856;12.344;2022-08-19T01:26:43;22.10;99.90
16485;DHT22;8353;47.856;12.344;2022-08-19T01:29:30;22.10;99.90
16485;DHT22;8353;47.856;12.344;2022-08-19T01:32:20;22.00;99.90
16485;DHT22;8353;47.856;12.344;2022-08-19T01:35:08;21.90;99.90
16485;DHT22;8353;47.856;12.344;2022-08-19T01:37:56;21.90;99.90
16485;DHT22;8353;47.856;12.344;2022-08-19T01:40:45;21.90;99.90
16485;DHT22;8353;47.856;12.344;2022-08-19T01:43:32;21.90;99.90
16485;DHT22;8353;47.856;12.344;2022-08-19T01:46:19;21.90;99.90
16485;DHT22;8353;47.856;12.344;2022-08-19T01:49:07;21.80;99.90
16485;DHT22;8353;47.856;12.344;2022-08-19T01:51:54;21.90;99.90
16485;DHT22;8353;47.856;12.344;2022-08-19T01:54:41;21.90;99.90
16485;DHT22;8353;47.856;12.344;2022-08-19T01:57:29;21.90;99.90
16485;DHT22;8353;47.856;12.344;2022-08-19T02:00:20;21.90;99.90
16485;DHT22;8353;47.856;12.344;2022-08-19T02:03:08;21.90;99.90
16485;DHT22;8353;47.856;12.344;2022-08-19T02:05:57;21.90;99.90
16485;DHT22;8353;47.856;12.344;2022-08-19T02:08:45;21.80;99.90
16485;DHT22;8353;47.856;12.344;2022-08-19T02:11:35;21.80;99.90
16485;DHT22;8353;47.856;12.344;2022-08-19T02:14:23;21.80;99.90
16485;DHT22;8353;47.856;12.344;2022-08-19T02:17:10;21.90;99.90
16485;DHT22;8353;47.856;12.344;2022-08-19T02:19:57;21.90;99.90
16485;DHT22;8353;47.856;12.344;2022-08-19T02:22:44;21.70;99.90
16485;DHT22;8353;47.856;12.344;2022-08-19T02:25:31;21.70;99.90
16485;DHT22;8353;47.856;12.344;2022-08-19T02:28:18;21.70;99.90
16485;DHT22;8353;47.856;12.344;2022-08-19T02:31:10;21.70;99.90
16485;DHT22;8353;47.856;12.344;2022-08-19T02:33:57;21.70;99.90
16485;DHT22;8353;47.856;12.344;2022-08-19T02:36:44;21.60;99.90
16485;DHT22;8353;47.856;12.344;2022-08-19T02:39:31;21.70;99.90
16485;DHT22;8353;47.856;12.344;2022-08-19T02:42:16;21.70;99.90
16485;DHT22;8353;47.856;12.344;2022-08-19T02:45:04;21.70;99.90
16485;DHT22;8353;47.856;12.344;2022-08-19T02:47:52;21.70;99.90
16485;DHT22;8353;47.856;12.344;2022-08-19T02:50:40;21.70;99.90
16485;DHT22;8353;47.856;12.344;2022-08-19T02:53:28;21.90;99.90
16485;DHT22;8353;47.856;12.344;2022-08-19T02:56:15;21.90;99.90
16485;DHT22;8353;47.856;12.344;2022-08-19T02:59:02;21.90;99.90
16485;DHT22;8353;47.856;12.344;2022-08-19T03:01:57;21.90;99.90
16485;DHT22;8353;47.856;12.344;2022-08-19T03:04:45;21.90;99.90
16485;DHT22;8353;47.856;12.344;2022-08-19T03:07:32;21.90;99.90
16485;DHT22;8353;47.856;12.344;2022-08-19T03:10:19;22.00;99.90
16485;DHT22;8353;47.856;12.344;2022-08-19T03:13:05;22.00;99.90
16485;DHT22;8353;47.856;12.344;2022-08-19T03:15:53;22.00;99.90
16485;DHT22;8353;47.856;12.344;2022-08-19T03:18:40;22.10;99.90
16485;DHT22;8353;47.856;12.344;2022-08-19T03:21:31;22.00;99.90
16485;DHT22;8353;47.856;12.344;2022-08-19T03:24:19;21.90;99.90
16485;DHT22;8353;47.856;12.344;2022-08-19T03:27:06;21.80;99.90
16485;DHT22;8353;47.856;12.344;2022-08-19T03:29:53;21.70;99.90
16485;DHT22;8353;47.856;12.344;2022-08-19T03:32:40;21.60;99.90
16485;DHT22;8353;47.856;12.344;2022-08-19T03:35:26;21.70;99.90
16485;DHT22;8353;47.856;12.344;2022-08-19T03:38:15;21.70;99.90
16485;DHT22;8353;47.856;12.344;2022-08-19T03:41:06;21.80;99.90
16485;DHT22;8353;47.856;12.344;2022-08-19T03:43:54;21.80;99.90
16485;DHT22;8353;47.856;12.344;2022-08-19T03:46:41;21.80;99.90
16485;DHT22;8353;47.856;12.344;2022-08-19T03:49:30;21.70;99.90
16485;DHT22;8353;47.856;12.344;2022-08-19T03:52:18;21.80;99.90
16485;DHT22;8353;47.856;12.344;2022-08-19T03:55:08;21.90;99.90
16485;DHT22;8353;47.856;12.344;2022-08-19T03:57:54;21.80;99.90
16485;DHT22;8353;47.856;12.344;2022-08-19T04:00:42;21.90;99.90
16485;DHT22;8353;47.856;12.344;2022-08-19T04:03:29;21.50;99.90
16485;DHT22;8353;47.856;12.344;2022-08-19T04:06:18;21.50;99.90
16485;DHT22;8353;47.856;12.344;2022-08-19T04:09:08;21.80;99.90
16485;DHT22;8353;47.856;12.344;2022-08-19T04:11:57;22.00;99.90
16485;DHT22;8353;47.856;12.344;2022-08-19T04:14:44;22.20;99.90
16485;DHT22;8353;47.856;12.344;2022-08-19T04:17:31;22.30;99.90
16485;DHT22;8353;47.856;12.344;2022-08-19T04:20:18;22.40;99.90
16485;DHT22;8353;47.856;12.344;2022-08-19T04:23:05;22.40;99.90
16485;DHT22;8353;47.856;12.344;2022-08-19T04:25:52;22.50;99.90
16485;DHT22;8353;47.856;12.344;2022-08-19T04:28:40;22.50;99.90
16485;DHT22;8353;47.856;12.344;2022-08-19T04:31:30;22.50;99.90
16485;DHT22;8353;47.856;12.344;2022-08-19T04:34:18;22.50;99.90
16485;DHT22;8353;47.856;12.344;2022-08-19T04:37:07;22.50;99.90
16485;DHT22;8353;47.856;12.344;2022-08-19T04:39:57;22.60;99.90
16485;DHT22;8353;47.856;12.344;2022-08-19T04:43:01;22.50;99.90
16485;DHT22;8353;47.856;12.344;2022-08-19T04:45:49;22.50;99.90
16485;DHT22;8353;47.856;12.344;2022-08-19T04:48:37;22.50;99.90
16485;DHT22;8353;47.856;12.344;2022-08-19T04:51:24;22.40;99.90
16485;DHT22;8353;47.856;12.344;2022-08-19T04:54:16;22.20;99.90
16485;DHT22;8353;47.856;12.344;2022-08-19T04:57:04;22.20;99.90
16485;DHT22;8353;47.856;12.344;2022-08-19T04:59:53;22.10;99.90
16485;DHT22;8353;47.856;12.344;2022-08-19T05:02:42;22.00;99.90
16485;DHT22;8353;47.856;12.344;2022-08-19T05:05:28;22.00;99.90
16485;DHT22;8353;47.856;12.344;2022-08-19T05:08:18;22.10;99.90
16485;DHT22;8353;47.856;12.344;2022-08-19T05:11:09;22.30;99.90
16485;DHT22;8353;47.856;12.344;2022-08-19T05:13:56;22.20;99.90
16485;DHT22;8353;47.856;12.344;2022-08-19T05:16:43;22.30;99.90
16485;DHT22;8353;47.856;12.344;2022-08-19T05:19:31;22.40;99.90
16485;DHT22;8353;47.856;12.344;2022-08-19T05:22:35;22.50;99.90
16485;DHT22;8353;47.856;12.344;2022-08-19T05:25:22;22.50;99.90
16485;DHT22;8353;47.856;12.344;2022-08-19T05:28:11;22.40;99.90
16485;DHT22;8353;47.856;12.344;2022-08-19T05:30:57;22.30;99.90
16485;DHT22;8353;47.856;12.344;2022-08-19T05:33:44;22.20;99.90
16485;DHT22;8353;47.856;12.344;2022-08-19T05:36:36;22.10;99.90
16485;DHT22;8353;47.856;12.344;2022-08-19T05:39:26;22.10;99.90
16485;DHT22;8353;47.856;12.344;2022-08-19T05:42:13;22.20;99.90
16485;DHT22;8353;47.856;12.344;2022-08-19T05:45:00;22.20;99.90
16485;DHT22;8353;47.856;12.344;2022-08-19T05:47:47;22.20;99.90
16485;DHT22;8353;47.856;12.344;2022-08-19T05:50:35;22.30;99.90
16485;DHT22;8353;47.856;12.344;2022-08-19T05:53:24;22.20;99.90
16485;DHT22;8353;47.856;12.344;2022-08-19T05:56:14;22.20;99.90
16485;DHT22;8353;47.856;12.344;2022-08-19T05:59:01;22.20;99.90
16485;DHT22;8353;47.856;12.344;2022-08-19T06:01:51;22.30;99.90
16485;DHT22;8353;47.856;12.344;2022-08-19T06:04:39;22.40;99.90
16485;DHT22;8353;47.856;12.344;2022-08-19T06:07:28;22.40;99.90
16485;DHT22;8353;47.856;12.344;2022-08-19T06:10:16;22.30;99.90
16485;DHT22;8353;47.856;12.344;2022-08-19T06:13:03;22.30;99.90
16485;DHT22;8353;47.856;12.344;2022-08-19T06:15:51;22.20;99.90
16485;DHT22;8353;47.856;12.344;2022-08-19T06:18:38;22.30;99.90
16485;DHT22;8353;47.856;12.344;2022-08-19T06:21:26;22.40;99.90
16485;DHT22;8353;47.856;12.344;2022-08-19T06:24:19;22.40;99.90
16485;DHT22;8353;47.856;12.344;2022-08-19T06:27:09;22.30;99.90
16485;DHT22;8353;47.856;12.344;2022-08-19T06:29:56;22.30;99.90
16485;DHT22;8353;47.856;12.344;2022-08-19T06:32:43;21.90;99.90
16485;DHT22;8353;47.856;12.344;2022-08-19T06:35:30;21.80;99.90
16485;DHT22;8353;47.856;12.344;2022-08-19T06:38:17;21.70;99.90
16485;DHT22;8353;47.856;12.344;2022-08-19T06:41:05;21.90;99.90
16485;DHT22;8353;47.856;12.344;2022-08-19T06:43:54;22.00;99.90
16485;DHT22;8353;47.856;12.344;2022-08-19T06:46:41;22.20;99.90
16485;DHT22;8353;47.856;12.344;2022-08-19T06:49:28;22.30;99.90
16485;DHT22;8353;47.856;12.344;2022-08-19T06:52:17;22.40;99.90
16485;DHT22;8353;47.856;12.344;2022-08-19T06:55:06;22.50;99.90
16485;DHT22;8353;47.856;12.344;2022-08-19T06:57:53;22.60;99.90
16485;DHT22;8353;47.856;12.344;2022-08-19T07:00:41;22.60;99.90
16485;DHT22;8353;47.856;12.344;2022-08-19T07:03:32;22.70;99.90
16485;DHT22;8353;47.856;12.344;2022-08-19T07:06:20;22.70;99.90
16485;DHT22;8353;47.856;12.344;2022-08-19T07:09:09;22.80;99.90
16485;DHT22;8353;47.856;12.344;2022-08-19T07:11:56;23.00;99.90
16485;DHT22;8353;47.856;12.344;2022-08-19T07:14:43;23.20;99.90
16485;DHT22;8353;47.856;12.344;2022-08-19T07:17:33;23.20;99.90
16485;DHT22;8353;47.856;12.344;2022-08-19T07:20:20;23.20;99.90
16485;DHT22;8353;47.856;12.344;2022-08-19T07:23:07;23.00;99.90
16485;DHT22;8353;47.856;12.344;2022-08-19T07:25:54;22.80;99.90
16485;DHT22;8353;47.856;12.344;2022-08-19T07:28:43;23.00;99.90
16485;DHT22;8353;47.856;12.344;2022-08-19T07:31:30;22.90;99.90
16485;DHT22;8353;47.856;12.344;2022-08-19T07:34:18;22.80;99.90
16485;DHT22;8353;47.856;12.344;2022-08-19T07:37:06;22.70;99.90
16485;DHT22;8353;47.856;12.344;2022-08-19T07:39:53;23.00;99.90
16485;DHT22;8353;47.856;12.344;2022-08-19T07:42:40;23.20;99.90
16485;DHT22;8353;47.856;12.344;2022-08-19T07:45:27;23.20;99.90
16485;DHT22;8353;47.856;12.344;2022-08-19T07:48:14;23.20;99.90
16485;DHT22;8353;47.856;12.344;2022-08-19T07:51:05;23.30;99.90
16485;DHT22;8353;47.856;12.344;2022-08-19T07:53:54;23.20;99.90
16485;DHT22;8353;47.856;12.344;2022-08-19T07:56:41;23.00;99.90
16485;DHT22;8353;47.856;12.344;2022-08-19T07:59:28;22.60;99.90
16485;DHT22;8353;47.856;12.344;2022-08-19T08:02:14;22.60;99.90
16485;DHT22;8353;47.856;12.344;2022-08-19T08:05:01;22.60;99.90
16485;DHT22;8353;47.856;12.344;2022-08-19T08:08:07;22.80;99.90
16485;DHT22;8353;47.856;12.344;2022-08-19T08:11:19;22.70;99.90
16485;DHT22;8353;47.856;12.344;2022-08-19T08:14:06;22.80;99.90
16485;DHT22;8353;47.856;12.344;2022-08-19T08:16:54;23.10;99.90
16485;DHT22;8353;47.856;12.344;2022-08-19T08:19:42;23.40;99.90
16485;DHT22;8353;47.856;12.344;2022-08-19T08:22:29;23.50;99.90
16485;DHT22;8353;47.856;12.344;2022-08-19T08:25:36;23.60;99.90
16485;DHT22;8353;47.856;12.344;2022-08-19T08:28:23;23.80;99.90
16485;DHT22;8353;47.856;12.344;2022-08-19T08:31:10;23.90;99.90
16485;DHT22;8353;47.856;12.344;2022-08-19T08:33:57;24.00;99.90
16485;DHT22;8353;47.856;12.344;2022-08-19T08:36:45;24.10;99.90
16485;DHT22;8353;47.856;12.344;2022-08-19T08:39:32;24.30;99.90
16485;DHT22;8353;47.856;12.344;2022-08-19T08:42:25;24.20;99.90
16485;DHT22;8353;47.856;12.344;2022-08-19T08:45:16;24.30;99.90
16485;DHT22;8353;47.856;12.344;2022-08-19T08:48:12;24.30;99.90
16485;DHT22;8353;47.856;12.344;2022-08-19T08:51:03;24.30;99.90
16485;DHT22;8353;47.856;12.344;2022-08-19T08:53:52;24.40;99.90
16485;DHT22;8353;47.856;12.344;2022-08-19T08:56:40;24.60;99.90
16485;DHT22;8353;47.856;12.344;2022-08-19T08:59:33;24.40;99.90
16485;DHT22;8353;47.856;12.344;2022-08-19T09:02:20;24.40;99.90
16485;DHT22;8353;47.856;12.344;2022-08-19T09:05:09;24.50;99.90
16485;DHT22;8353;47.856;12.344;2022-08-19T09:08:02;24.40;99.90
16485;DHT22;8353;47.856;12.344;2022-08-19T09:10:52;24.20;99.90
16485;DHT22;8353;47.856;12.344;2022-08-19T09:13:48;24.00;99.90
16485;DHT22;8353;47.856;12.344;2022-08-19T09:16:37;24.30;99.90
16485;DHT22;8353;47.856;12.344;2022-08-19T09:19:25;24.30;99.90
16485;DHT22;8353;47.856;12.344;2022-08-19T09:22:12;24.40;99.90
16485;DHT22;8353;47.856;12.344;2022-08-19T09:24:59;24.70;99.90
16485;DHT22;8353;47.856;12.344;2022-08-19T09:27:46;24.90;99.90
16485;DHT22;8353;47.856;12.344;2022-08-19T09:30:40;24.70;99.90
16485;DHT22;8353;47.856;12.344;2022-08-19T09:33:28;24.70;99.90
16485;DHT22;8353;47.856;12.344;2022-08-19T09:36:18;24.90;99.90
16485;DHT22;8353;47.856;12.344;2022-08-19T09:39:06;25.20;99.90
16485;DHT22;8353;47.856;12.344;2022-08-19T09:41:53;25.30;99.90
16485;DHT22;8353;47.856;12.344;2022-08-19T09:44:43;25.50;99.90
16485;DHT22;8353;47.856;12.344;2022-08-19T09:47:30;25.50;99.90
16485;DHT22;8353;47.856;12.344;2022-08-19T09:50:19;25.60;99.90
16485;DHT22;8353;47.856;12.344;2022-08-19T09:53:06;25.90;99.90
16485;DHT22;8353;47.856;12.344;2022-08-19T09:55:55;26.00;99.90
16485;DHT22;8353;47.856;12.344;2022-08-19T09:58:42;26.10;99.90
16485;DHT22;8353;47.856;12.344;2022-08-19T10:01:30;26.00;99.90
16485;DHT22;8353;47.856;12.344;2022-08-19T10:04:17;26.20;99.90
16485;DHT22;8353;47.856;12.344;2022-08-19T10:07:06;26.30;99.90
16485;DHT22;8353;47.856;12.344;2022-08-19T10:09:53;26.30;99.90
16485;DHT22;8353;47.856;12.344;2022-08-19T10:12:40;26.40;99.90
16485;DHT22;8353;47.856;12.344;2022-08-19T10:15:26;25.90;99.90
16485;DHT22;8353;47.856;12.344;2022-08-19T10:18:13;25.80;99.90
16485;DHT22;8353;47.856;12.344;2022-08-19T10:21:07;25.70;99.90
16485;DHT22;8353;47.856;12.344;2022-08-19T10:23:58;26.20;99.90
16485;DHT22;8353;47.856;12.344;2022-08-19T10:26:45;26.30;99.90
16485;DHT22;8353;47.856;12.344;2022-08-19T10:29:34;26.30;99.90
16485;DHT22;8353;47.856;12.344;2022-08-19T10:32:21;26.60;99.90
16485;DHT22;8353;47.856;12.344;2022-08-19T10:35:08;26.60;99.90
16485;DHT22;8353;47.856;12.344;2022-08-19T10:37:55;26.70;99.90
16485;DHT22;8353;47.856;12.344;2022-08-19T10:40:45;26.70;99.90
16485;DHT22;8353;47.856;12.344;2022-08-19T10:43:32;26.40;99.90
16485;DHT22;8353;47.856;12.344;2022-08-19T10:46:23;26.20;99.90
16485;DHT22;8353;47.856;12.344;2022-08-19T10:49:11;26.40;99.90
16485;DHT22;8353;47.856;12.344;2022-08-19T10:51:58;26.60;99.90
16485;DHT22;8353;47.856;12.344;2022-08-19T10:55:04;27.00;99.90
16485;DHT22;8353;47.856;12.344;2022-08-19T10:58:15;27.40;99.90
16485;DHT22;8353;47.856;12.344;2022-08-19T11:01:02;27.50;99.90
16485;DHT22;8353;47.856;12.344;2022-08-19T11:03:48;27.60;99.90
16485;DHT22;8353;47.856;12.344;2022-08-19T11:06:35;27.70;99.90
16485;DHT22;8353;47.856;12.344;2022-08-19T11:09:25;28.00;99.90
16485;DHT22;8353;47.856;12.344;2022-08-19T11:12:12;28.20;99.90
16485;DHT22;8353;47.856;12.344;2022-08-19T11:15:02;28.30;99.90
16485;DHT22;8353;47.856;12.344;2022-08-19T11:17:49;27.60;99.90
16485;DHT22;8353;47.856;12.344;2022-08-19T11:20:37;27.30;99.90
16485;DHT22;8353;47.856;12.344;2022-08-19T11:23:24;27.30;99.90
16485;DHT22;8353;47.856;12.344;2022-08-19T11:26:11;27.80;99.90
16485;DHT22;8353;47.856;12.344;2022-08-19T11:28:58;28.00;99.90
16485;DHT22;8353;47.856;12.344;2022-08-19T11:31:48;28.10;99.90
16485;DHT22;8353;47.856;12.344;2022-08-19T11:34:36;28.20;99.90
16485;DHT22;8353;47.856;12.344;2022-08-19T11:37:23;28.20;99.90
16485;DHT22;8353;47.856;12.344;2022-08-19T11:40:11;28.40;99.90
16485;DHT22;8353;47.856;12.344;2022-08-19T11:42:58;28.20;99.90
16485;DHT22;8353;47.856;12.344;2022-08-19T11:45:45;28.30;99.90
16485;DHT22;8353;47.856;12.344;2022-08-19T11:48:35;28.30;99.90
16485;DHT22;8353;47.856;12.344;2022-08-19T11:51:24;28.60;99.90
16485;DHT22;8353;47.856;12.344;2022-08-19T11:54:12;28.50;99.90
16485;DHT22;8353;47.856;12.344;2022-08-19T11:56:59;28.30;99.90
16485;DHT22;8353;47.856;12.344;2022-08-19T11:59:49;28.30;99.90
16485;DHT22;8353;47.856;12.344;2022-08-19T12:02:36;28.20;99.90
16485;DHT22;8353;47.856;12.344;2022-08-19T12:05:24;28.10;99.90
16485;DHT22;8353;47.856;12.344;2022-08-19T12:08:11;27.20;99.90
16485;DHT22;8353;47.856;12.344;2022-08-19T12:10:58;27.50;99.90
16485;DHT22;8353;47.856;12.344;2022-08-19T12:13:46;28.00;99.90
16485;DHT22;8353;47.856;12.344;2022-08-19T12:16:33;28.20;99.90
16485;DHT22;8353;47.856;12.344;2022-08-19T12:19:20;28.30;99.90
16485;DHT22;8353;47.856;12.344;2022-08-19T12:22:08;28.30;99.90
16485;DHT22;8353;47.856;12.344;2022-08-19T12:24:55;28.60;99.90
16485;DHT22;8353;47.856;12.344;2022-08-19T12:27:43;28.80;99.90
16485;DHT22;8353;47.856;12.344;2022-08-19T12:30:30;28.40;99.90
16485;DHT22;8353;47.856;12.344;2022-08-19T12:33:18;28.50;99.90
16485;DHT22;8353;47.856;12.344;2022-08-19T12:36:08;28.60;99.90
16485;DHT22;8353;47.856;12.344;2022-08-19T12:38:58;28.70;99.90
16485;DHT22;8353;47.856;12.344;2022-08-19T12:41:45;28.90;99.90
16485;DHT22;8353;47.856;12.344;2022-08-19T12:44:32;29.10;99.90
16485;DHT22;8353;47.856;12.344;2022-08-19T12:47:19;28.80;99.90
16485;DHT22;8353;47.856;12.344;2022-08-19T12:50:06;28.70;99.90
16485;DHT22;8353;47.856;12.344;2022-08-19T12:52:54;28.90;99.90
16485;DHT22;8353;47.856;12.344;2022-08-19T12:55:42;29.10;99.90
16485;DHT22;8353;47.856;12.344;2022-08-19T12:58:29;28.90;99.90
16485;DHT22;8353;47.856;12.344;2022-08-19T13:01:17;28.90;99.90
16485;DHT22;8353;47.856;12.344;2022-08-19T13:04:04;28.80;99.90
16485;DHT22;8353;47.856;12.344;2022-08-19T13:06:51;28.10;99.90
16485;DHT22;8353;47.856;12.344;2022-08-19T13:09:38;28.30;99.90
16485;DHT22;8353;47.856;12.344;2022-08-19T13:12:27;28.50;99.90
16485;DHT22;8353;47.856;12.344;2022-08-19T13:15:15;28.80;99.90
16485;DHT22;8353;47.856;12.344;2022-08-19T13:18:06;28.80;99.90
16485;DHT22;8353;47.856;12.344;2022-08-19T13:20:53;28.50;99.90
16485;DHT22;8353;47.856;12.344;2022-08-19T13:23:42;28.60;99.90
16485;DHT22;8353;47.856;12.344;2022-08-19T13:26:29;28.70;99.90
16485;DHT22;8353;47.856;12.344;2022-08-19T13:29:17;28.90;99.90
16485;DHT22;8353;47.856;12.344;2022-08-19T13:32:22;29.00;99.90
16485;DHT22;8353;47.856;12.344;2022-08-19T13:35:26;29.00;99.90
16485;DHT22;8353;47.856;12.344;2022-08-19T13:38:15;28.80;99.90
16485;DHT22;8353;47.856;12.344;2022-08-19T13:41:05;28.80;99.90
16485;DHT22;8353;47.856;12.344;2022-08-19T13:43:52;28.40;99.90
16485;DHT22;8353;47.856;12.344;2022-08-19T13:46:41;27.90;99.90
16485;DHT22;8353;47.856;12.344;2022-08-19T13:49:30;28.20;99.90
16485;DHT22;8353;47.856;12.344;2022-08-19T13:52:17;28.30;99.90
16485;DHT22;8353;47.856;12.344;2022-08-19T13:55:05;28.30;99.90
16485;DHT22;8353;47.856;12.344;2022-08-19T13:57:52;28.20;99.90
16485;DHT22;8353;47.856;12.344;2022-08-19T14:00:41;28.40;99.90
16485;DHT22;8353;47.856;12.344;2022-08-19T14:03:31;28.30;99.90
16485;DHT22;8353;47.856;12.344;2022-08-19T14:06:18;28.40;99.90
16485;DHT22;8353;47.856;12.344;2022-08-19T14:09:04;28.50;99.90
16485;DHT22;8353;47.856;12.344;2022-08-19T14:11:53;28.30;99.90
16485;DHT22;8353;47.856;12.344;2022-08-19T14:14:40;28.00;99.90
16485;DHT22;8353;47.856;12.344;2022-08-19T14:17:27;28.00;99.90
16485;DHT22;8353;47.856;12.344;2022-08-19T14:20:16;28.10;99.90
16485;DHT22;8353;47.856;12.344;2022-08-19T14:23:03;27.80;99.90
16485;DHT22;8353;47.856;12.344;2022-08-19T14:25:51;27.40;99.90
16485;DHT22;8353;47.856;12.344;2022-08-19T14:28:42;26.90;99.90
16485;DHT22;8353;47.856;12.344;2022-08-19T14:31:29;27.00;99.90
16485;DHT22;8353;47.856;12.344;2022-08-19T14:34:16;27.00;99.90
16485;DHT22;8353;47.856;12.344;2022-08-19T14:37:04;27.00;99.90
16485;DHT22;8353;47.856;12.344;2022-08-19T14:39:51;26.80;99.90
16485;DHT22;8353;47.856;12.344;2022-08-19T14:42:38;26.20;99.90
16485;DHT22;8353;47.856;12.344;2022-08-19T14:45:27;25.60;99.90
16485;DHT22;8353;47.856;12.344;2022-08-19T14:48:14;25.60;99.90
16485;DHT22;8353;47.856;12.344;2022-08-19T14:51:00;25.60;99.90
16485;DHT22;8353;47.856;12.344;2022-08-19T14:53:49;25.40;99.90
16485;DHT22;8353;47.856;12.344;2022-08-19T14:56:36;25.50;99.90
16485;DHT22;8353;47.856;12.344;2022-08-19T14:59:26;25.80;99.90
16485;DHT22;8353;47.856;12.344;2022-08-19T15:02:13;26.00;99.90
16485;DHT22;8353;47.856;12.344;2022-08-19T15:05:00;26.10;99.90
16485;DHT22;8353;47.856;12.344;2022-08-19T15:07:47;25.10;99.90
16485;DHT22;8353;47.856;12.344;2022-08-19T15:10:35;23.80;99.90
16485;DHT22;8353;47.856;12.344;2022-08-19T15:13:22;23.50;99.90
16485;DHT22;8353;47.856;12.344;2022-08-19T15:16:10;24.10;99.90
16485;DHT22;8353;47.856;12.344;2022-08-19T15:18:58;23.80;99.90
16485;DHT22;8353;47.856;12.344;2022-08-19T15:21:46;23.20;99.90
16485;DHT22;8353;47.856;12.344;2022-08-19T15:24:33;22.90;99.90
16485;DHT22;8353;47.856;12.344;2022-08-19T15:27:22;23.40;99.90
16485;DHT22;8353;47.856;12.344;2022-08-19T15:30:10;24.00;99.90
16485;DHT22;8353;47.856;12.344;2022-08-19T15:32:57;24.20;99.90
16485;DHT22;8353;47.856;12.344;2022-08-19T15:35:44;24.40;99.90
16485;DHT22;8353;47.856;12.344;2022-08-19T15:38:32;24.30;99.90
16485;DHT22;8353;47.856;12.344;2022-08-19T15:41:22;24.20;99.90
16485;DHT22;8353;47.856;12.344;2022-08-19T15:44:13;24.30;99.90
16485;DHT22;8353;47.856;12.344;2022-08-19T15:47:00;23.90;99.90
16485;DHT22;8353;47.856;12.344;2022-08-19T15:49:47;23.30;99.90
16485;DHT22;8353;47.856;12.344;2022-08-19T15:52:34;22.80;99.90
16485;DHT22;8353;47.856;12.344;2022-08-19T15:55:24;22.70;99.90
16485;DHT22;8353;47.856;12.344;2022-08-19T15:58:13;23.10;99.90
16485;DHT22;8353;47.856;12.344;2022-08-19T16:01:33;23.20;99.90
16485;DHT22;8353;47.856;12.344;2022-08-19T16:04:38;23.40;99.90
16485;DHT22;8353;47.856;12.344;2022-08-19T16:07:42;23.40;99.90
16485;DHT22;8353;47.856;12.344;2022-08-19T16:10:30;23.50;99.90
16485;DHT22;8353;47.856;12.344;2022-08-19T16:13:17;23.40;99.90
16485;DHT22;8353;47.856;12.344;2022-08-19T16:16:04;23.40;99.90
16485;DHT22;8353;47.856;12.344;2022-08-19T16:18:52;23.40;99.90
16485;DHT22;8353;47.856;12.344;2022-08-19T16:21:39;23.20;99.90
16485;DHT22;8353;47.856;12.344;2022-08-19T16:24:26;23.10;99.90
16485;DHT22;8353;47.856;12.344;2022-08-19T16:27:13;23.10;99.90
16485;DHT22;8353;47.856;12.344;2022-08-19T16:30:01;23.10;99.90
16485;DHT22;8353;47.856;12.344;2022-08-19T16:32:48;23.20;99.90
16485;DHT22;8353;47.856;12.344;2022-08-19T16:35:37;23.20;99.90
16485;DHT22;8353;47.856;12.344;2022-08-19T16:38:23;23.20;99.90
16485;DHT22;8353;47.856;12.344;2022-08-19T16:41:11;23.40;99.90
16485;DHT22;8353;47.856;12.344;2022-08-19T16:43:58;23.20;99.90
16485;DHT22;8353;47.856;12.344;2022-08-19T16:46:45;23.30;99.90
16485;DHT22;8353;47.856;12.344;2022-08-19T16:49:32;23.20;99.90
16485;DHT22;8353;47.856;12.344;2022-08-19T16:52:20;23.10;99.90
16485;DHT22;8353;47.856;12.344;2022-08-19T16:55:12;23.20;99.90
16485;DHT22;8353;47.856;12.344;2022-08-19T16:57:59;23.00;99.90
16485;DHT22;8353;47.856;12.344;2022-08-19T17:00:49;23.20;99.90
16485;DHT22;8353;47.856;12.344;2022-08-19T17:03:37;23.20;99.90
16485;DHT22;8353;47.856;12.344;2022-08-19T17:06:26;23.20;99.90
16485;DHT22;8353;47.856;12.344;2022-08-19T17:09:15;23.00;99.90
16485;DHT22;8353;47.856;12.344;2022-08-19T17:12:03;23.10;99.90
16485;DHT22;8353;47.856;12.344;2022-08-19T17:14:50;22.90;99.90
16485;DHT22;8353;47.856;12.344;2022-08-19T17:17:37;22.80;99.90
16485;DHT22;8353;47.856;12.344;2022-08-19T17:20:24;22.70;99.90
16485;DHT22;8353;47.856;12.344;2022-08-19T17:23:11;22.70;99.90
16485;DHT22;8353;47.856;12.344;2022-08-19T17:25:59;22.70;99.90
16485;DHT22;8353;47.856;12.344;2022-08-19T17:28:47;22.40;99.90
16485;DHT22;8353;47.856;12.344;2022-08-19T17:31:34;22.50;99.90
16485;DHT22;8353;47.856;12.344;2022-08-19T17:34:21;22.40;99.90
16485;DHT22;8353;47.856;12.344;2022-08-19T17:37:08;22.10;99.90
16485;DHT22;8353;47.856;12.344;2022-08-19T17:39:55;21.80;99.90
16485;DHT22;8353;47.856;12.344;2022-08-19T17:42:43;21.90;99.90
16485;DHT22;8353;47.856;12.344;2022-08-19T17:45:30;22.00;99.90